Terminal Aerodrome Forecast
Issued by NWS

Home | Current Version | Previous Version | Graphics & Text | Print | Product List | Glossary On
Versions: 1 2 3 4 5 6 7 8 9 10 11 12 13 14
633
FTUS43 KMPX 240525
TAFRWF
TAF
KRWF 240525Z 2406/2506 16006KT 6SM BR VCSH OVC020
     FM240700 24006KT 4SM BR OVC005
     FM241200 28006KT P6SM SCT020
     FM241700 28014G20KT P6SM SKC
     FM250000 28007KT P6SM FEW250=

USA.gov is the U.S. government's official web portal to all federal, state and local government web resources and services.